createdAt,value
2018-11-20T00:02:43.799Z,7.20
2018-11-20T00:05:32.922Z,6.87
2018-11-20T00:08:22.110Z,8.03
2018-11-20T00:11:29.167Z,7.60
2018-11-20T00:14:27.229Z,6.40
2018-11-20T00:17:25.552Z,7.13
2018-11-20T00:20:09.230Z,7.30
2018-11-20T00:22:58.429Z,7.00
2018-11-20T00:25:46.143Z,7.47
2018-11-20T00:28:35.874Z,6.90
2018-11-20T00:31:23.269Z,8.30
2018-11-20T00:34:10.768Z,7.27
2018-11-20T00:37:03.874Z,7.20
2018-11-20T00:39:55.883Z,6.90
2018-11-20T00:42:56.843Z,7.03
2018-11-20T00:45:44.275Z,8.30
2018-11-20T00:48:32.066Z,7.30
2018-11-20T00:51:19.766Z,8.17
2018-11-20T00:54:23.764Z,8.77
2018-11-20T00:57:16.158Z,8.67
2018-11-20T01:00:11.286Z,7.73
2018-11-20T01:03:06.537Z,8.90
2018-11-20T01:06:04.827Z,8.97
2018-11-20T01:09:03.113Z,8.77
2018-11-20T01:12:04.272Z,8.53
2018-11-20T01:14:56.508Z,8.40
2018-11-20T01:17:51.515Z,8.83
2018-11-20T01:20:33.348Z,8.83
2018-11-20T01:23:21.070Z,8.77
2018-11-20T01:26:02.390Z,8.63
2018-11-20T01:28:50.100Z,9.60
2018-11-20T01:31:42.084Z,8.30
2018-11-20T01:34:29.485Z,9.23
2018-11-20T01:37:24.557Z,8.27
2018-11-20T01:40:19.753Z,8.63
2018-11-20T01:43:07.279Z,9.07
2018-11-20T01:46:05.242Z,10.23
2018-11-20T01:48:57.045Z,8.53
2018-11-20T01:51:51.843Z,8.87
2018-11-20T01:54:42.632Z,9.07
2018-11-20T01:57:40.790Z,9.47
2018-11-20T02:00:32.613Z,9.53
2018-11-20T02:03:21.788Z,9.93
2018-11-20T02:06:26.027Z,10.43
2018-11-20T02:09:07.480Z,9.77
2018-11-20T02:12:05.781Z,9.27
2018-11-20T02:14:53.443Z,10.37
2018-11-20T02:17:49.623Z,10.03
2018-11-20T02:20:50.522Z,10.07
2018-11-20T02:23:38.059Z,9.20
2018-11-20T02:26:27.890Z,10.87
2018-11-20T02:29:19.863Z,10.13
2018-11-20T02:32:17.836Z,10.43
2018-11-20T02:34:58.960Z,9.70
2018-11-20T02:37:46.599Z,8.90
2018-11-20T02:40:41.680Z,10.37
2018-11-20T02:43:23.202Z,8.93
2018-11-20T02:46:10.533Z,9.50
2018-11-20T02:49:11.463Z,9.30
2018-11-20T02:51:58.956Z,9.33
2018-11-20T02:54:50.612Z,9.00
2018-11-20T02:57:38.398Z,8.73
2018-11-20T03:00:46.199Z,8.17
2018-11-20T03:03:35.416Z,9.13
2018-11-20T03:06:20.157Z,8.57
2018-11-20T03:09:13.293Z,8.07
2018-11-20T03:12:05.036Z,8.60
2018-11-20T03:14:52.589Z,8.50
2018-11-20T03:17:47.552Z,8.93
2018-11-20T03:20:42.796Z,8.43
2018-11-20T03:23:25.683Z,9.37
2018-11-20T03:26:15.241Z,8.60
2018-11-20T03:30:05.827Z,10.60
2018-11-20T03:33:04.347Z,8.55
2018-11-20T03:35:51.876Z,9.10
2018-11-20T03:38:39.286Z,8.93
2018-11-20T03:41:34.681Z,9.40
2018-11-20T03:44:13.233Z,9.13
2018-11-20T03:47:05.049Z,9.60
2018-11-20T03:49:52.662Z,9.43
2018-11-20T03:52:48.617Z,9.50
2018-11-20T03:55:32.086Z,8.63
2018-11-20T03:58:27.015Z,9.70
2018-11-20T04:01:16.160Z,8.90
2018-11-20T04:03:57.819Z,9.00
2018-11-20T04:07:02.034Z,9.00
2018-11-20T04:09:51.207Z,8.77
2018-11-20T04:12:31.323Z,9.10
2018-11-20T04:15:29.522Z,9.23
2018-11-20T04:18:27.629Z,9.23
2018-11-20T04:21:15.333Z,8.97
2018-11-20T04:24:03.080Z,9.40
2018-11-20T04:27:01.213Z,9.03
2018-11-20T04:29:59.285Z,9.43
2018-11-20T04:32:36.898Z,8.77
2018-11-20T04:35:17.013Z,9.27
2018-11-20T04:38:17.875Z,9.40
2018-11-20T04:41:16.624Z,8.97
2018-11-20T04:44:08.645Z,10.00
2018-11-20T04:47:06.528Z,9.50
2018-11-20T04:49:49.331Z,9.33
2018-11-20T04:52:41.276Z,10.10
2018-11-20T04:55:29.150Z,10.50
2018-11-20T04:58:07.076Z,10.33
2018-11-20T05:00:54.858Z,10.40
2018-11-20T05:03:42.342Z,10.27
2018-11-20T05:06:46.700Z,10.77
2018-11-20T05:09:35.749Z,10.07
2018-11-20T05:12:20.328Z,10.37
2018-11-20T05:15:16.124Z,10.50
2018-11-20T05:18:08.292Z,11.20
2018-11-20T05:20:57.257Z,11.03
2018-11-20T05:23:46.457Z,9.97
2018-11-20T05:26:34.029Z,10.90
2018-11-20T05:29:35.048Z,10.93
2018-11-20T05:32:42.526Z,11.23
2018-11-20T05:35:34.578Z,10.87
2018-11-20T05:38:20.080Z,11.03
2018-11-20T05:41:07.797Z,11.47
2018-11-20T05:43:58.340Z,10.87
2018-11-20T05:46:59.453Z,11.57
2018-11-20T05:49:47.502Z,10.47
2018-11-20T05:52:39.560Z,10.23
2018-11-20T05:55:27.256Z,10.63
2018-11-20T05:58:20.544Z,10.70
2018-11-20T06:01:12.108Z,10.80
2018-11-20T06:04:06.813Z,10.93
2018-11-20T06:06:54.543Z,11.17
2018-11-20T06:09:49.461Z,11.53
2018-11-20T06:12:36.866Z,11.40
2018-11-20T06:15:35.549Z,10.90
2018-11-20T06:18:18.545Z,11.30
2018-11-20T06:20:57.851Z,10.87
2018-11-20T06:23:45.178Z,11.10
2018-11-20T06:26:42.917Z,10.87
2018-11-20T06:29:30.316Z,12.40
2018-11-20T06:32:25.572Z,11.67
2018-11-20T06:35:23.822Z,11.73
2018-11-20T06:38:22.109Z,11.23
2018-11-20T06:41:29.413Z,11.80
2018-11-20T06:44:24.663Z,12.10
2018-11-20T06:47:19.762Z,12.77
2018-11-20T06:50:20.817Z,12.43
2018-11-20T06:53:00.315Z,13.60
2018-11-20T06:56:07.152Z,12.57
2018-11-20T06:58:54.717Z,12.60
2018-11-20T07:01:47.003Z,14.27
2018-11-20T07:04:39.090Z,12.70
2018-11-20T07:07:26.883Z,12.33
2018-11-20T07:10:15.890Z,13.17
2018-11-20T07:13:13.935Z,11.57
2018-11-20T07:16:01.285Z,13.13
2018-11-20T07:18:48.832Z,12.67
2018-11-20T07:21:38.056Z,13.27
2018-11-20T07:24:25.592Z,13.73
2018-11-20T07:27:25.140Z,13.70
2018-11-20T07:30:19.550Z,13.17
2018-11-20T07:33:17.639Z,13.10
2018-11-20T07:35:58.349Z,13.80
2018-11-20T07:38:55.764Z,14.13
2018-11-20T07:41:44.936Z,14.63
2018-11-20T07:44:40.664Z,13.90
2018-11-20T07:47:20.625Z,13.53
2018-11-20T07:50:08.393Z,13.80
2018-11-20T07:52:55.955Z,14.47
2018-11-20T07:55:45.112Z,14.97
2018-11-20T07:58:32.824Z,13.27
2018-11-20T08:01:21.975Z,14.73
2018-11-20T08:04:03.350Z,14.87
2018-11-20T08:06:49.126Z,14.07
2018-11-20T08:09:41.070Z,13.80
2018-11-20T08:12:38.815Z,13.80
2018-11-20T08:15:33.743Z,13.77
2018-11-20T08:18:31.533Z,13.70
2018-11-20T08:21:19.331Z,13.33
2018-11-20T08:24:06.824Z,13.07
2018-11-20T08:26:49.198Z,12.17
2018-11-20T08:29:38.357Z,13.47
2018-11-20T08:32:25.824Z,12.43
2018-11-20T08:35:15.042Z,13.10
2018-11-20T08:38:02.560Z,12.97
2018-11-20T08:40:54.732Z,13.80
2018-11-20T08:43:46.495Z,12.17
2018-11-20T08:46:41.568Z,12.77
2018-11-20T08:49:29.229Z,12.27
2018-11-20T08:52:17.171Z,12.30
2018-11-20T08:55:12.705Z,12.60
2018-11-20T08:58:16.691Z,11.47
2018-11-20T09:00:56.846Z,12.20
2018-11-20T09:03:51.729Z,12.23
2018-11-20T09:06:43.793Z,11.40
2018-11-20T09:09:28.982Z,12.70
2018-11-20T09:12:12.093Z,11.90
2018-11-20T09:14:59.883Z,12.70
2018-11-20T09:17:47.620Z,11.23
2018-11-20T09:20:41.407Z,12.67
2018-11-20T09:23:29.434Z,12.00
2018-11-20T09:26:14.662Z,10.93
2018-11-20T09:29:06.570Z,11.70
2018-11-20T09:31:54.169Z,13.80
2018-11-20T09:34:39.701Z,12.13
2018-11-20T09:37:27.708Z,11.37
2018-11-20T09:40:55.136Z,12.00
2018-11-20T09:43:46.712Z,11.50
2018-11-20T09:46:47.551Z,12.27
2018-11-20T09:49:35.239Z,11.47
2018-11-20T09:52:34.545Z,12.63
2018-11-20T09:55:39.894Z,12.33
2018-11-20T09:58:27.822Z,11.43
2018-11-20T10:01:15.018Z,11.87
2018-11-20T10:04:10.038Z,11.40
2018-11-20T10:07:05.297Z,11.70
2018-11-20T10:10:04.922Z,11.43
2018-11-20T10:12:48.387Z,12.80
2018-11-20T10:15:43.644Z,12.90
2018-11-20T10:18:31.107Z,12.57
2018-11-20T10:21:18.855Z,12.60
2018-11-20T10:24:22.778Z,11.53
2018-11-20T10:27:10.485Z,12.57
2018-11-20T10:30:05.833Z,12.53
2018-11-20T10:32:54.039Z,12.05
2018-11-20T10:35:43.184Z,12.43
2018-11-20T10:38:38.608Z,13.03
2018-11-20T10:41:26.314Z,12.77
2018-11-20T10:44:13.696Z,12.27
2018-11-20T10:47:01.417Z,11.03
2018-11-20T10:49:53.257Z,11.57
2018-11-20T10:52:45.375Z,11.67
2018-11-20T10:55:43.454Z,12.27
2018-11-20T10:58:31.035Z,12.47
2018-11-20T11:01:18.830Z,12.37
2018-11-20T11:04:22.961Z,12.50
2018-11-20T11:07:02.660Z,13.40
2018-11-20T11:09:41.244Z,12.23
2018-11-20T11:12:39.386Z,11.87
2018-11-20T11:15:37.572Z,11.70
2018-11-20T11:18:41.702Z,11.53
2018-11-20T11:21:39.538Z,13.07
2018-11-20T11:24:27.204Z,11.80
2018-11-20T11:27:22.161Z,12.90
2018-11-20T11:30:10.145Z,11.90
2018-11-20T11:32:59.368Z,12.63
2018-11-20T11:35:48.202Z,12.53
2018-11-20T11:38:32.468Z,11.67
2018-11-20T11:41:31.993Z,12.73
2018-11-20T11:44:19.460Z,12.83
2018-11-20T11:47:26.808Z,12.57
2018-11-20T11:50:28.130Z,14.90
2018-11-20T11:53:20.096Z,12.67
2018-11-20T11:56:09.253Z,13.13
2018-11-20T11:59:04.205Z,12.63
2018-11-20T12:04:46.649Z,13.07
2018-11-20T12:07:26.396Z,13.80
2018-11-20T12:10:15.543Z,13.70
2018-11-20T12:13:04.677Z,12.63
2018-11-20T12:16:12.069Z,13.20
2018-11-20T12:18:44.213Z,12.73
2018-11-20T12:21:33.415Z,13.07
2018-11-20T12:24:40.936Z,12.67
2018-11-20T12:27:28.675Z,12.30
2018-11-20T12:30:08.900Z,13.27
2018-11-20T12:32:56.479Z,12.90
2018-11-20T12:35:48.189Z,13.00
2018-11-20T12:38:55.308Z,13.80
2018-11-20T12:41:47.025Z,11.50
2018-11-20T12:44:36.651Z,12.17
2018-11-20T12:47:34.374Z,13.23
2018-11-20T12:53:32.234Z,13.13
2018-11-20T12:56:19.747Z,13.13
2018-11-20T12:59:07.222Z,13.30
2018-11-20T13:01:56.919Z,12.83
2018-11-20T13:04:50.039Z,12.20
2018-11-20T13:07:36.377Z,12.80
2018-11-20T13:10:26.476Z,12.93
2018-11-20T13:13:24.520Z,12.57
2018-11-20T13:16:16.596Z,12.70
2018-11-20T13:19:02.897Z,11.93
2018-11-20T13:21:50.594Z,14.03
2018-11-20T13:24:46.425Z,12.47
2018-11-20T13:27:33.964Z,12.73
2018-11-20T13:30:21.646Z,13.00
2018-11-20T13:33:15.859Z,13.23
2018-11-20T13:35:58.204Z,12.30
2018-11-20T13:38:46.054Z,13.73
2018-11-20T13:42:06.577Z,14.17
2018-11-20T13:45:21.822Z,13.67
2018-11-20T13:48:22.826Z,12.60
2018-11-20T13:51:14.440Z,14.13
2018-11-20T13:54:12.978Z,12.67
2018-11-20T13:57:00.685Z,13.47
2018-11-20T13:59:52.520Z,13.80
2018-11-20T14:02:44.556Z,12.90
2018-11-20T14:05:51.561Z,13.47
2018-11-20T14:08:35.554Z,12.97
2018-11-20T14:11:37.052Z,14.30
2018-11-20T14:14:38.282Z,13.07
2018-11-20T14:17:42.677Z,12.80
2018-11-20T14:20:36.959Z,13.40
2018-11-20T14:23:34.936Z,13.33
2018-11-20T14:26:22.933Z,13.07
2018-11-20T14:29:10.459Z,14.80
2018-11-20T14:32:14.408Z,14.47
2018-11-20T14:35:06.227Z,14.23
2018-11-20T14:37:55.390Z,14.27
2018-11-20T14:40:44.507Z,14.63
2018-11-20T14:43:39.335Z,12.53
2018-11-20T14:46:37.601Z,13.77
2018-11-20T14:49:25.431Z,14.27
2018-11-20T14:55:13.116Z,13.93
2018-11-20T14:58:00.973Z,14.23
2018-11-20T15:00:48.510Z,14.03
2018-11-20T15:03:36.121Z,13.70
2018-11-20T15:06:23.924Z,13.23
2018-11-20T15:09:15.773Z,12.33
2018-11-20T15:12:02.332Z,12.03
2018-11-20T15:14:50.127Z,12.30
2018-11-20T15:17:51.118Z,13.13
2018-11-20T15:20:49.162Z,11.83
2018-11-20T15:23:47.147Z,10.63
2018-11-20T15:26:42.160Z,11.43
2018-11-20T15:30:21.611Z,11.70
2018-11-20T15:33:17.989Z,13.53
2018-11-20T15:36:06.525Z,13.07
2018-11-20T15:38:53.367Z,13.40
2018-11-20T15:41:40.685Z,12.63
2018-11-20T15:44:27.791Z,12.97
2018-11-20T15:47:16.166Z,12.60
2018-11-20T15:49:59.144Z,13.67
2018-11-20T15:52:58.216Z,12.13
2018-11-20T15:55:45.427Z,13.40
2018-11-20T15:58:32.929Z,13.53
2018-11-20T16:09:20.710Z,13.57
2018-11-20T16:12:48.325Z,15.43
2018-11-20T16:16:13.539Z,14.53
2018-11-20T16:19:27.347Z,17.87
2018-11-20T16:26:25.903Z,15.37
2018-11-20T16:29:43.566Z,15.53
2018-11-20T16:32:24.597Z,15.97
2018-11-20T16:35:38.988Z,15.63
2018-11-20T16:38:27.473Z,14.63
2018-11-20T16:41:31.404Z,14.40
2018-11-20T16:44:18.661Z,14.67
2018-11-20T16:47:09.581Z,16.53
2018-11-20T16:50:00.451Z,15.80
2018-11-20T16:52:47.121Z,14.80
2018-11-20T16:55:42.090Z,15.20
2018-11-20T16:58:28.356Z,15.43
2018-11-20T17:01:15.204Z,15.13
2018-11-20T17:04:02.245Z,16.73
2018-11-20T17:06:47.261Z,16.63
2018-11-20T17:09:34.546Z,16.93
2018-11-20T17:12:28.552Z,16.60
2018-11-20T17:15:07.328Z,15.83
2018-11-20T17:17:53.873Z,16.90
2018-11-20T17:20:45.253Z,16.67
2018-11-20T17:23:48.655Z,15.37
2018-11-20T17:26:40.013Z,14.83
2018-11-20T17:29:31.378Z,15.87
2018-11-20T17:32:15.515Z,15.93
2018-11-20T17:35:10.578Z,15.63
2018-11-20T17:37:57.834Z,14.17
2018-11-20T17:40:44.659Z,15.30
2018-11-20T17:43:32.965Z,16.07
2018-11-20T17:46:27.411Z,16.27
2018-11-20T17:49:14.508Z,15.00
2018-11-20T17:52:21.089Z,15.33
2018-11-20T17:55:09.798Z,14.97
2018-11-20T17:58:01.003Z,15.70
2018-11-20T18:04:31.458Z,14.67
2018-11-20T18:07:25.685Z,14.57
2018-11-20T18:10:14.047Z,15.30
2018-11-20T18:12:55.264Z,15.37
2018-11-20T18:15:43.721Z,13.73
2018-11-20T18:18:30.777Z,13.93
2018-11-20T18:21:24.945Z,14.07
2018-11-20T18:24:23.199Z,14.30
2018-11-20T18:27:04.542Z,13.07
2018-11-20T18:30:02.084Z,13.50
2018-11-20T18:32:52.816Z,14.30
2018-11-20T18:35:52.875Z,13.97
2018-11-20T18:38:53.491Z,15.00
2018-11-20T18:41:56.933Z,14.00
2018-11-20T18:44:44.575Z,14.83
2018-11-20T18:47:45.231Z,14.27
2018-11-20T18:50:39.567Z,12.60
2018-11-20T18:53:25.294Z,13.60
2018-11-20T18:56:16.575Z,13.57
2018-11-20T18:59:05.079Z,13.23
2018-11-20T19:01:57.353Z,13.23
2018-11-20T19:04:49.264Z,13.97
2018-11-20T19:07:25.855Z,13.67
2018-11-20T19:31:19.186Z,14.20
2018-11-20T19:34:16.287Z,14.13
2018-11-20T19:37:10.569Z,13.73
2018-11-20T19:40:01.473Z,14.60
2018-11-20T19:42:58.789Z,14.23
2018-11-20T19:45:47.725Z,15.03
2018-11-20T19:48:51.084Z,14.47
2018-11-20T19:51:38.063Z,14.87
2018-11-20T19:54:26.439Z,14.03
2018-11-20T19:57:13.325Z,15.17
2018-11-20T20:00:00.097Z,13.73
2018-11-20T20:02:50.989Z,13.47
2018-11-20T20:05:44.715Z,16.50
2018-11-20T20:08:45.448Z,13.97
2018-11-20T20:11:34.419Z,14.43
2018-11-20T20:14:23.219Z,14.23
2018-11-20T20:17:20.885Z,13.37
2018-11-20T20:23:12.364Z,15.63
2018-11-20T20:26:01.283Z,14.60
2018-11-20T20:28:50.131Z,16.77
2018-11-20T20:31:37.169Z,14.23
2018-11-20T20:34:28.577Z,15.70
2018-11-20T20:37:29.322Z,15.10
2018-11-20T20:40:16.487Z,15.23
2018-11-20T20:43:23.076Z,15.50
2018-11-20T20:46:10.207Z,16.00
2018-11-20T20:48:57.270Z,17.20
2018-11-20T20:51:46.146Z,15.47
2018-11-20T20:54:33.220Z,15.90
2018-11-20T20:57:24.873Z,15.73
2018-11-20T21:00:12.246Z,15.77
2018-11-20T21:03:15.973Z,15.33
2018-11-20T21:06:10.568Z,15.90
2018-11-20T21:08:58.452Z,15.90
2018-11-20T21:11:56.389Z,16.77
2018-11-20T21:14:48.042Z,15.07
2018-11-20T21:17:36.898Z,15.77
2018-11-20T21:20:27.562Z,16.40
2018-11-20T21:23:18.473Z,15.87
2018-11-20T21:29:32.515Z,15.63
2018-11-20T21:32:33.923Z,15.60
2018-11-20T21:35:14.385Z,16.90
2018-11-20T21:38:17.951Z,14.60
2018-11-20T21:41:06.793Z,15.50
2018-11-20T21:44:04.249Z,15.47
2018-11-20T21:46:53.076Z,15.40
2018-11-20T21:49:53.746Z,16.67
2018-11-20T21:52:42.560Z,16.50
2018-11-20T21:55:29.479Z,15.73
2018-11-20T21:58:16.737Z,15.57
2018-11-20T22:01:22.209Z,14.67
2018-11-20T22:04:19.744Z,15.20
2018-11-20T22:07:06.999Z,15.27
2018-11-20T22:10:13.713Z,16.10
2018-11-20T22:13:00.887Z,15.10
2018-11-20T22:15:47.978Z,16.63
2018-11-20T22:18:36.788Z,14.97
2018-11-20T22:21:29.983Z,16.77
2018-11-20T22:24:29.109Z,16.53
2018-11-20T22:27:26.854Z,16.57
2018-11-20T22:30:18.514Z,17.57
2018-11-20T22:33:22.084Z,16.10
2018-11-20T22:36:09.416Z,15.70
2018-11-20T22:38:58.205Z,15.97
2018-11-20T22:41:46.930Z,16.80
2018-11-20T22:44:43.166Z,16.80
2018-11-20T22:47:43.883Z,16.37
2018-11-20T22:50:30.812Z,17.57
2018-11-20T22:53:19.535Z,17.10
2018-11-20T22:56:08.310Z,17.00
2018-11-20T22:59:08.739Z,17.20
2018-11-20T23:01:55.772Z,16.37
2018-11-20T23:05:04.712Z,17.73
2018-11-20T23:07:45.334Z,17.57
2018-11-20T23:10:16.831Z,15.20
2018-11-20T23:12:46.490Z,17.37
2018-11-20T23:15:16.483Z,17.13
2018-11-20T23:17:46.133Z,17.30
2018-11-20T23:20:15.772Z,16.63
2018-11-20T23:22:45.411Z,17.90
2018-11-20T23:25:15.667Z,16.93
2018-11-20T23:27:55.972Z,16.00
2018-11-20T23:30:25.600Z,16.83
2018-11-20T23:32:55.264Z,16.63
2018-11-20T23:35:24.892Z,16.30
2018-11-20T23:37:54.534Z,15.23
2018-11-20T23:40:24.153Z,16.37
2018-11-20T23:42:53.783Z,15.83
2018-11-20T23:45:23.445Z,16.50
2018-11-20T23:47:53.095Z,17.90
2018-11-20T23:50:22.769Z,16.77
2018-11-20T23:52:58.119Z,17.67
2018-11-20T23:55:33.811Z,18.23
2018-11-20T23:58:12.616Z,17.27
